Time;durP1;ratioP1;P1;durP2;ratioP2;P2;SDS_P1;SDS_P2;PMS_P1;PMS_P2;Temp;Humidity;BMP_temperature;BMP_pressure;BME280_temperature;BME280_humidity;BME280_pressure;Samples;Min_cycle;Max_cycle;Signal;HPM_P1;HPM_P2
2022/10/28 00:00:46;;;;;;;2.50;1.90;;;;;;;14.21;94.06;101686.44;5055668;28;20021;-81
2022/10/28 00:03:12;;;;;;;2.40;2.20;;;;;;;14.20;93.91;101684.72;5054746;28;20351;-81
2022/10/28 00:05:37;;;;;;;2.20;2.00;;;;;;;14.18;94.03;101680.41;5055577;28;20111;-81
2022/10/28 00:08:02;;;;;;;2.53;2.00;;;;;;;14.16;94.24;101677.81;5055288;28;20027;-81
2022/10/28 00:10:28;;;;;;;2.50;2.20;;;;;;;14.14;94.16;101681.34;5054833;28;20095;-81
2022/10/28 00:12:53;;;;;;;3.20;2.40;;;;;;;14.09;94.43;101676.19;5053940;28;20032;-81
2022/10/28 00:15:18;;;;;;;3.13;2.10;;;;;;;14.05;94.74;101678.00;5055659;28;20531;-81
2022/10/28 00:17:43;;;;;;;3.87;2.50;;;;;;;14.00;94.93;101674.59;5054267;28;20029;-81
2022/10/28 00:20:09;;;;;;;3.13;2.57;;;;;;;13.97;94.49;101672.03;5054742;28;20033;-82
2022/10/28 00:22:34;;;;;;;3.37;2.50;;;;;;;13.90;94.75;101679.09;5041580;28;20038;-81
2022/10/28 00:25:00;;;;;;;4.60;2.90;;;;;;;13.85;95.65;101674.81;5034163;28;20029;-81
2022/10/28 00:27:25;;;;;;;4.23;2.60;;;;;;;13.82;94.92;101678.34;5044804;28;20112;-81
2022/10/28 00:29:50;;;;;;;5.37;3.30;;;;;;;13.75;96.60;101668.91;5054730;28;20029;-81
2022/10/28 00:32:15;;;;;;;6.00;3.20;;;;;;;13.72;95.76;101675.03;5054107;28;20044;-81
2022/10/28 00:34:41;;;;;;;4.93;3.30;;;;;;;13.69;96.05;101675.09;5055089;28;20029;-81
2022/10/28 00:37:06;;;;;;;4.90;3.10;;;;;;;13.64;96.15;101669.06;5054695;28;20059;-81
2022/10/28 00:39:31;;;;;;;3.70;2.70;;;;;;;13.62;96.10;101669.97;5054089;28;20424;-81
2022/10/28 00:42:02;;;;;;;2.97;2.50;;;;;;;13.58;95.82;101675.22;5054573;28;20025;-81
2022/10/28 00:44:55;;;;;;;3.33;2.40;;;;;;;13.55;95.67;101677.91;5054959;28;20029;-81
2022/10/28 00:47:32;;;;;;;3.03;2.33;;;;;;;13.51;95.75;101665.78;5055038;28;20556;-81
2022/10/28 00:50:08;;;;;;;2.40;2.20;;;;;;;13.47;95.52;101665.84;5054558;28;20021;-81
2022/10/28 00:52:34;;;;;;;3.08;2.35;;;;;;;13.44;95.44;101656.31;5054069;28;20025;-81
2022/10/28 00:55:01;;;;;;;2.30;2.10;;;;;;;13.42;95.42;101658.94;5047216;28;20465;-81
2022/10/28 00:57:29;;;;;;;;;;;;;;;13.41;95.26;101648.53;5035092;28;20026;-81
2022/10/28 00:59:57;;;;;;;4.63;2.42;;;;;;;13.35;95.35;101644.25;5033849;28;19917;-81
2022/10/28 01:02:22;;;;;;;4.35;2.38;;;;;;;13.33;95.37;101643.41;5034648;28;20029;-81
2022/10/28 01:04:48;;;;;;;3.00;2.40;;;;;;;13.31;95.16;101639.09;5034714;28;20025;-81
2022/10/28 01:07:14;;;;;;;2.73;2.30;;;;;;;13.28;95.29;101632.19;5033759;28;20475;-81
2022/10/28 01:09:40;;;;;;;;;;;;;;;13.27;95.39;101625.25;5035199;28;20025;-81
2022/10/28 01:12:42;;;;;;;3.30;2.20;;;;;;;13.24;95.19;101628.75;5034238;28;19917;-81
2022/10/28 01:15:32;;;;;;;2.97;2.20;;;;;;;13.21;95.35;101626.19;5033356;28;20034;-81
2022/10/28 01:18:24;;;;;;;2.72;2.13;;;;;;;13.19;95.25;101619.25;5033966;28;20108;-80
2022/10/28 01:21:11;;;;;;;2.90;2.30;;;;;;;13.17;95.39;101628.88;5048052;28;20033;-80
2022/10/28 01:23:55;;;;;;;3.13;2.20;;;;;;;13.15;95.20;101621.03;5053825;28;20025;-81
2022/10/28 01:27:06;;;;;;;3.90;2.50;;;;;;;13.11;95.74;101628.06;5036910;28;20072;-81
2022/10/28 01:29:40;;;;;;;3.33;2.30;;;;;;;13.09;95.35;101627.22;4978998;28;20378;-81
2022/10/28 01:32:22;;;;;;;2.80;2.10;;;;;;;13.07;95.55;101621.16;5032968;28;20057;-80
2022/10/28 01:35:02;;;;;;;2.38;2.15;;;;;;;13.05;95.40;101624.66;5051425;28;20061;-81
2022/10/28 01:37:37;;;;;;;2.67;2.20;;;;;;;13.04;95.78;101617.72;5053736;28;20479;-81
2022/10/28 01:40:30;;;;;;;2.72;2.20;;;;;;;12.97;95.94;101617.81;5053642;28;20078;-81
2022/10/28 01:43:11;;;;;;;2.53;2.05;;;;;;;12.92;95.71;101613.56;5052943;28;20035;-81
2022/10/28 01:45:52;;;;;;;2.90;2.20;;;;;;;12.90;96.37;101617.91;5053937;28;20358;-81
2022/10/28 01:48:29;;;;;;;2.40;2.20;;;;;;;12.87;96.24;101607.53;5052829;28;20018;-81
2022/10/28 01:51:07;;;;;;;2.30;2.10;;;;;;;12.85;95.88;101609.28;5053601;28;20083;-81
2022/10/28 01:53:37;;;;;;;2.88;2.20;;;;;;;12.83;96.23;101615.38;5042585;28;20033;-81
2022/10/28 01:56:09;;;;;;;2.85;2.20;;;;;;;12.82;95.76;101618.00;5032672;28;20072;-81
2022/10/28 01:58:36;;;;;;;2.22;2.00;;;;;;;12.81;95.72;101618.88;5033680;28;20013;-82
2022/10/28 02:01:05;;;;;;;2.20;2.00;;;;;;;12.80;96.06;101609.34;5033111;28;20486;-81
2022/10/28 02:03:30;;;;;;;2.38;2.05;;;;;;;12.77;95.72;101606.78;5032916;28;20025;-81
2022/10/28 02:05:59;;;;;;;2.63;2.00;;;;;;;12.76;96.02;101611.13;5032958;28;20532;-81
2022/10/28 02:08:53;;;;;;;2.30;2.00;;;;;;;12.75;95.63;101609.41;5032670;28;20382;-81
2022/10/28 02:11:25;;;;;;;2.55;2.08;;;;;;;12.73;95.90;101600.72;5032353;28;20029;-81
2022/10/28 02:14:21;;;;;;;3.13;2.25;;;;;;;12.71;95.74;101605.13;5034150;28;20064;-81
2022/10/28 02:17:21;;;;;;;2.97;2.20;;;;;;;12.69;95.91;101608.59;5032752;28;20064;-81
2022/10/28 02:19:59;;;;;;;2.80;2.22;;;;;;;12.66;95.83;101601.69;4949660;28;20046;-81
2022/10/28 02:22:44;;;;;;;2.38;2.00;;;;;;;12.64;95.94;101606.94;5033124;28;20026;-81
2022/10/28 02:25:18;;;;;;;2.10;1.90;;;;;;;12.64;96.06;101606.06;5032362;28;20040;-81
2022/10/28 02:27:56;;;;;;;1.75;1.60;;;;;;;12.61;96.33;101609.56;5033266;28;20025;-81
2022/10/28 02:30:37;;;;;;;1.95;1.85;;;;;;;12.60;96.59;101607.00;5032581;28;20112;-81
2022/10/28 02:33:09;;;;;;;2.95;2.00;;;;;;;12.57;96.76;101604.41;5037301;28;20081;-81
2022/10/28 02:35:51;;;;;;;2.78;2.00;;;;;;;12.52;97.25;101607.91;5052538;28;20083;-81
2022/10/28 02:38:25;;;;;;;2.92;2.30;;;;;;;12.46;97.84;101602.78;5051561;28;20032;-81
2022/10/28 02:40:55;;;;;;;2.63;2.20;;;;;;;12.41;97.95;101604.56;5052225;28;20425;-80
2022/10/28 02:43:23;;;;;;;2.58;2.20;;;;;;;12.39;97.49;101593.31;5051545;28;20033;-81
2022/10/28 02:45:54;;;;;;;3.05;2.20;;;;;;;12.36;98.12;101595.97;5052140;28;20048;-81
2022/10/28 02:48:42;;;;;;;2.35;2.10;;;;;;;12.34;97.54;101600.31;5051717;28;20029;-81
2022/10/28 02:51:16;;;;;;;2.95;2.10;;;;;;;12.33;97.83;101596.00;5044560;28;20029;-81
2022/10/28 02:53:53;;;;;;;2.30;2.10;;;;;;;12.34;97.95;101602.94;5032236;28;20124;-81
2022/10/28 02:56:20;;;;;;;2.10;1.90;;;;;;;12.33;97.26;101603.81;5033939;28;20034;-80
2022/10/28 02:58:46;;;;;;;2.63;2.25;;;;;;;12.30;98.43;101602.09;5031635;28;20212;-80
2022/10/28 03:01:11;;;;;;;2.45;1.90;;;;;;;12.30;97.71;101594.28;5032659;28;20071;-81
2022/10/28 03:03:36;;;;;;;4.17;2.50;;;;;;;12.28;99.86;101590.84;5032823;28;20413;-80
2022/10/28 03:06:02;;;;;;;7.83;3.30;;;;;;;12.24;99.79;101586.53;5031871;28;20018;-80
2022/10/28 03:08:27;;;;;;;4.30;2.77;;;;;;;12.20;98.74;101587.47;5032810;28;20022;-81
2022/10/28 03:10:52;;;;;;;3.83;2.53;;;;;;;12.20;98.14;101588.31;5032685;28;20014;-81
2022/10/28 03:13:18;;;;;;;5.13;2.87;;;;;;;12.19;98.23;101599.59;5031602;28;20032;-80
2022/10/28 03:15:43;;;;;;;4.60;2.33;;;;;;;12.18;99.03;101597.88;5032316;28;20033;-81
2022/10/28 03:18:08;;;;;;;4.97;2.87;;;;;;;12.16;100.00;101586.59;5032093;28;20029;-81
2022/10/28 03:20:33;;;;;;;3.93;2.70;;;;;;;12.12;99.11;101591.84;5031686;28;20371;-81
2022/10/28 03:22:59;;;;;;;2.90;2.20;;;;;;;12.09;98.96;101587.56;5032119;28;20029;-81
2022/10/28 03:25:24;;;;;;;3.80;2.10;;;;;;;12.05;98.56;101589.31;5045693;28;20037;-80
2022/10/28 03:27:49;;;;;;;3.33;2.10;;;;;;;12.05;98.23;101594.53;5031399;28;20026;-81
2022/10/28 03:30:17;;;;;;;4.00;2.40;;;;;;;12.05;99.74;101594.53;5032572;28;20040;-81
2022/10/28 03:32:42;;;;;;;2.63;2.22;;;;;;;12.04;99.39;101589.34;5032045;28;20401;-82
2022/10/28 03:35:08;;;;;;;2.57;2.10;;;;;;;12.02;98.95;101586.75;5031494;28;20048;-81
2022/10/28 03:37:33;;;;;;;2.67;2.10;;;;;;;12.01;99.21;101591.97;5032662;28;20025;-81
2022/10/28 03:40:01;;;;;;;2.10;1.90;;;;;;;11.99;99.62;101591.13;5032228;28;20033;-81
2022/10/28 03:42:26;;;;;;;2.45;2.08;;;;;;;11.97;98.96;101590.22;5031755;28;20075;-81
2022/10/28 03:44:52;;;;;;;2.80;2.10;;;;;;;11.95;99.77;101584.19;5031967;28;20025;-82
2022/10/28 03:47:17;;;;;;;3.03;2.30;;;;;;;11.87;99.78;101582.53;5035086;28;20462;-82
2022/10/28 03:49:42;;;;;;;3.73;2.30;;;;;;;11.86;99.71;101580.78;5034660;28;20027;-81
2022/10/28 03:52:07;;;;;;;5.43;2.80;;;;;;;11.84;100.00;101579.09;5035279;28;20029;-81
2022/10/28 03:54:32;;;;;;;3.97;2.80;;;;;;;11.83;99.93;101583.41;5043826;28;20496;-81
2022/10/28 03:56:58;;;;;;;3.37;2.20;;;;;;;11.84;99.66;101576.50;5054820;28;20033;-81
2022/10/28 03:59:23;;;;;;;3.30;1.83;;;;;;;11.83;99.45;101578.22;5055915;28;20040;-81
2022/10/28 04:01:48;;;;;;;2.17;1.90;;;;;;;11.85;99.39;101579.06;5053844;28;20028;-82
2022/10/28 04:04:14;;;;;;;2.00;1.80;;;;;;;11.82;100.00;101584.28;5055768;28;20062;-81
2022/10/28 04:06:39;;;;;;;2.63;2.10;;;;;;;11.80;100.00;101574.78;5055805;28;20021;-82
2022/10/28 04:09:04;;;;;;;2.60;2.00;;;;;;;11.79;100.00;101579.13;5053829;28;20033;-81
2022/10/28 04:11:29;;;;;;;2.03;1.90;;;;;;;11.81;100.00;101585.19;5055378;28;20048;-81
2022/10/28 04:13:55;;;;;;;3.20;2.17;;;;;;;11.79;100.00;101581.72;5054965;28;20052;-81
2022/10/28 04:16:20;;;;;;;3.40;2.30;;;;;;;11.78;100.00;101580.00;5054846;28;20025;-82
2022/10/28 04:18:45;;;;;;;4.53;2.33;;;;;;;11.77;100.00;101580.00;5055064;28;20421;-82
2022/10/28 04:21:11;;;;;;;2.77;2.20;;;;;;;11.77;100.00;101586.06;5055176;28;20040;-82
2022/10/28 04:23:36;;;;;;;2.20;2.00;;;;;;;11.79;100.00;101592.13;5037361;28;20025;-81
2022/10/28 04:26:01;;;;;;;1.97;1.80;;;;;;;11.80;100.00;101593.84;5034861;28;20044;-81
2022/10/28 04:28:26;;;;;;;2.97;2.23;;;;;;;11.81;100.00;101584.31;5035187;28;20033;-81
2022/10/28 04:30:52;;;;;;;4.40;2.40;;;;;;;11.80;100.00;101580.84;5033379;28;20029;-81
2022/10/28 04:33:17;;;;;;;3.80;2.53;;;;;;;11.76;100.00;101584.34;5034492;28;20046;-81
2022/10/28 04:35:43;;;;;;;4.60;2.53;;;;;;;11.76;100.00;101584.34;5035290;28;20025;-81
2022/10/28 04:38:10;;;;;;;4.13;2.47;;;;;;;11.74;100.00;101588.69;5033803;28;20029;-81
2022/10/28 04:40:35;;;;;;;3.20;2.25;;;;;;;11.73;100.00;101587.84;5034904;28;20421;-81
2022/10/28 04:43:00;;;;;;;3.57;2.53;;;;;;;11.72;100.00;101580.03;5033640;28;20021;-81
2022/10/28 04:45:26;;;;;;;2.83;2.53;;;;;;;11.69;100.00;101583.53;5034244;28;20116;-81
2022/10/28 04:48:00;;;;;;;4.43;2.30;;;;;;;11.68;100.00;101579.22;5045182;28;20426;-81
2022/10/28 04:50:26;;;;;;;4.20;2.33;;;;;;;11.69;100.00;101587.88;5036141;28;20029;-81
2022/10/28 04:52:51;;;;;;;2.67;2.17;;;;;;;11.69;100.00;101580.09;5034085;28;20083;-81
2022/10/28 04:55:17;;;;;;;3.90;2.43;;;;;;;11.68;100.00;101580.97;5034674;28;20036;-81
2022/10/28 04:57:42;;;;;;;3.77;2.30;;;;;;;11.68;100.00;101586.16;5034430;28;20020;-81
2022/10/28 05:00:08;;;;;;;2.77;2.30;;;;;;;11.67;100.00;101584.44;5033787;28;20163;-81
2022/10/28 05:02:33;;;;;;;4.38;2.40;;;;;;;11.67;100.00;101584.44;5033958;28;20063;-81
2022/10/28 05:05:03;;;;;;;2.43;2.20;;;;;;;11.67;100.00;101582.69;5034516;28;20029;-81
2022/10/28 05:07:28;;;;;;;3.13;2.20;;;;;;;11.68;100.00;101570.56;5033999;28;20029;-81
2022/10/28 05:09:54;;;;;;;3.83;2.50;;;;;;;11.69;100.00;101577.47;5033904;28;20032;-81
2022/10/28 05:12:19;;;;;;;4.33;2.23;;;;;;;11.70;100.00;101579.22;5033706;28;20022;-81
2022/10/28 05:14:45;;;;;;;3.07;2.10;;;;;;;11.70;100.00;101580.06;5035067;28;20037;-81
2022/10/28 05:17:10;;;;;;;2.10;1.90;;;;;;;11.69;100.00;101580.09;5034446;28;20029;-82
2022/10/28 05:19:36;;;;;;;2.90;1.90;;;;;;;11.70;100.00;101577.47;5033256;28;20033;-81
2022/10/28 05:22:01;;;;;;;2.60;1.80;;;;;;;11.68;100.00;101581.81;5034051;28;20470;-81
2022/10/28 05:24:26;;;;;;;2.37;1.80;;;;;;;11.68;100.00;101586.16;5033598;28;20033;-81
2022/10/28 05:26:52;;;;;;;2.10;1.73;;;;;;;11.65;100.00;101573.16;5033363;28;20474;-81
2022/10/28 05:29:18;;;;;;;1.80;1.70;;;;;;;11.63;100.00;101562.78;5033208;28;20029;-81
2022/10/28 05:31:44;;;;;;;2.47;1.83;;;;;;;11.62;100.00;101570.59;5033714;28;20038;-82
2022/10/28 05:34:09;;;;;;;2.13;1.93;;;;;;;11.61;100.00;101568.84;5032697;28;20072;-81
2022/10/28 05:36:35;;;;;;;2.00;1.80;;;;;;;11.62;100.00;101565.38;5034189;28;20079;-82
2022/10/28 05:39:00;;;;;;;2.60;2.20;;;;;;;11.61;100.00;101563.66;5038741;28;20108;-81
2022/10/28 05:41:25;;;;;;;3.13;2.00;;;;;;;11.65;100.00;101565.38;5052884;28;20029;-81
2022/10/28 05:43:51;;;;;;;2.20;1.90;;;;;;;11.64;100.00;101566.25;5052948;28;20174;-81
2022/10/28 05:46:17;;;;;;;2.22;1.65;;;;;;;11.65;100.00;101573.16;5052957;28;20032;-82
2022/10/28 05:48:42;;;;;;;2.10;1.90;;;;;;;11.64;100.00;101569.72;5051497;28;20017;-82
2022/10/28 05:51:07;;;;;;;1.70;1.60;;;;;;;11.63;100.00;101573.19;5052805;28;20069;-81
2022/10/28 05:53:33;;;;;;;1.70;1.60;;;;;;;11.64;100.00;101577.53;5053331;28;20115;-81
2022/10/28 05:55:58;;;;;;;2.13;1.70;;;;;;;11.64;100.00;101571.44;5052662;28;20435;-82
2022/10/28 05:58:23;;;;;;;4.30;2.13;;;;;;;11.59;100.00;101563.69;5053473;28;20176;-81
2022/10/28 06:00:48;;;;;;;3.07;2.13;;;;;;;11.56;100.00;101561.09;5052570;28;20108;-81
2022/10/28 06:03:14;;;;;;;2.20;1.73;;;;;;;11.56;100.00;101567.19;5052808;28;20074;-82
2022/10/28 06:05:44;;;;;;;2.00;1.80;;;;;;;11.55;100.00;101570.66;5053315;28;20108;-81
2022/10/28 06:08:13;;;;;;;2.58;1.80;;;;;;;11.54;100.00;101566.31;5053045;28;20041;-81
2022/10/28 06:10:39;;;;;;;1.92;1.80;;;;;;;11.53;100.00;101572.38;5051363;28;20377;-82
2022/10/28 06:13:04;;;;;;;1.95;1.70;;;;;;;11.53;100.00;101572.38;5049376;28;20476;-82
2022/10/28 06:15:30;;;;;;;1.73;1.63;;;;;;;11.56;100.00;101564.56;5041191;28;20115;-82
2022/10/28 06:17:55;;;;;;;2.40;1.57;;;;;;;11.57;100.00;101574.09;5041925;28;20075;-80
2022/10/28 06:20:20;;;;;;;1.60;1.50;;;;;;;11.60;100.00;101583.63;5033514;28;20026;-80
2022/10/28 06:22:56;;;;;;;1.80;1.70;;;;;;;11.63;100.00;101583.59;5032535;28;20129;-80
2022/10/28 06:25:22;;;;;;;3.22;1.80;;;;;;;11.65;100.00;101580.97;5033396;28;20036;-80
2022/10/28 06:27:56;;;;;;;1.95;1.80;;;;;;;11.67;100.00;101580.06;5033238;28;20025;-79
2022/10/28 06:30:22;;;;;;;2.85;1.80;;;;;;;11.67;100.00;101584.44;5032641;28;20037;-78
2022/10/28 06:32:47;;;;;;;2.80;2.00;;;;;;;11.65;100.00;101580.97;5032958;28;20045;-79
2022/10/28 06:35:12;;;;;;;2.87;2.07;;;;;;;11.64;100.00;101584.44;5032621;28;20035;-79
2022/10/28 06:37:38;;;;;;;3.63;1.80;;;;;;;11.63;100.00;101583.59;5032453;28;20014;-78
2022/10/28 06:40:03;;;;;;;1.80;1.70;;;;;;;11.65;100.00;101583.56;5032784;28;20128;-79
2022/10/28 06:42:29;;;;;;;2.97;2.13;;;;;;;11.64;100.00;101585.31;5034048;28;20029;-78
2022/10/28 06:44:54;;;;;;;2.47;1.90;;;;;;;11.65;100.00;101575.78;5035293;28;20021;-79
2022/10/28 06:47:20;;;;;;;3.33;1.80;;;;;;;11.69;100.00;101580.09;5051705;28;20052;-78
2022/10/28 06:49:45;;;;;;;2.77;1.93;;;;;;;11.71;100.00;101575.72;5052815;28;20466;-79
2022/10/28 06:52:10;;;;;;;1.97;1.87;;;;;;;11.73;100.00;101574.84;5051702;28;20043;-79
2022/10/28 06:54:35;;;;;;;3.10;1.90;;;;;;;11.75;100.00;101569.63;5052876;28;20380;-78
2022/10/28 06:57:01;;;;;;;3.63;1.90;;;;;;;11.76;100.00;101571.34;5051852;28;20025;-78
2022/10/28 06:59:26;;;;;;;2.17;1.97;;;;;;;11.78;100.00;101572.19;5051993;28;20017;-79
2022/10/28 07:01:52;;;;;;;2.00;1.73;;;;;;;11.83;100.00;101575.59;5052407;28;20032;-79
2022/10/28 07:04:17;;;;;;;1.80;1.70;;;;;;;11.86;100.00;101578.19;5052739;28;20032;-79
2022/10/28 07:06:42;;;;;;;1.80;1.70;;;;;;;11.88;100.00;101584.25;5052026;28;20017;-79
2022/10/28 07:09:12;;;;;;;2.87;1.80;;;;;;;11.94;100.00;101585.06;5052548;28;20108;-79
2022/10/28 07:11:37;;;;;;;3.67;2.28;;;;;;;11.97;100.00;101577.22;5050646;28;20061;-79
2022/10/28 07:14:03;;;;;;;5.70;2.40;;;;;;;12.02;100.00;101584.16;5048915;28;20069;-79
2022/10/28 07:16:28;;;;;;;3.23;2.30;;;;;;;12.08;100.00;101583.22;5048903;28;20033;-79
2022/10/28 07:18:53;;;;;;;4.23;2.80;;;;;;;12.12;100.00;101582.31;5047921;28;20060;-80
2022/10/28 07:21:20;;;;;;;3.47;2.40;;;;;;;12.18;100.00;101578.81;5053966;28;20029;-80
2022/10/28 07:23:46;;;;;;;4.25;2.35;;;;;;;12.25;100.00;101575.25;5056538;28;20086;-80
2022/10/28 07:26:11;;;;;;;3.13;2.10;;;;;;;12.33;100.00;101589.03;5055427;28;20025;-80
2022/10/28 07:28:36;;;;;;;3.10;2.30;;;;;;;12.43;100.00;101596.75;5056500;28;20021;-80
2022/10/28 07:31:02;;;;;;;2.70;2.10;;;;;;;12.49;100.00;101594.09;5055874;28;20048;-80
2022/10/28 07:33:28;;;;;;;2.17;1.97;;;;;;;12.56;100.00;101598.31;5054868;28;20060;-80
2022/10/28 07:35:53;;;;;;;2.17;1.97;;;;;;;12.66;100.00;101602.56;5055124;28;20025;-80
2022/10/28 07:38:18;;;;;;;2.83;2.13;;;;;;;12.76;100.00;101598.09;5056227;28;20112;-80
2022/10/28 07:40:44;;;;;;;3.47;2.13;;;;;;;12.82;100.00;101598.03;5054709;28;20032;-80
2022/10/28 07:43:09;;;;;;;3.33;2.30;;;;;;;12.94;100.00;101596.16;5052803;28;20119;-80
2022/10/28 07:45:34;;;;;;;6.27;2.43;;;;;;;13.05;100.00;101596.00;5056192;28;20083;-80
2022/10/28 07:48:00;;;;;;;4.47;2.40;;;;;;;13.17;100.00;101595.84;5055202;28;20025;-80
2022/10/28 07:50:25;;;;;;;4.67;2.80;;;;;;;13.31;100.00;101594.78;5056078;28;20112;-80
2022/10/28 07:52:50;;;;;;;5.67;2.90;;;;;;;13.45;100.00;101587.66;5055543;28;20033;-79
2022/10/28 07:55:16;;;;;;;5.30;2.97;;;;;;;13.57;100.00;101591.81;5055143;28;20025;-80
2022/10/28 07:57:41;;;;;;;5.40;3.20;;;;;;;13.71;100.00;101579.41;5056103;28;20017;-80
2022/10/28 08:00:07;;;;;;;3.87;2.77;;;;;;;13.86;100.00;101582.63;5055630;28;20116;-80
2022/10/28 08:02:32;;;;;;;5.97;3.47;;;;;;;14.01;100.00;101581.53;5054855;28;20373;-79
2022/10/28 08:04:59;;;;;;;5.50;2.90;;;;;;;14.13;100.00;101581.25;5055665;28;20035;-80
2022/10/28 08:07:24;;;;;;;8.95;3.40;;;;;;;14.29;100.00;101586.22;5052314;28;20378;-83
2022/10/28 08:09:51;;;;;;;4.60;2.97;;;;;;;14.44;100.00;101583.31;5054414;28;20025;-83
2022/10/28 08:12:16;;;;;;;8.25;3.35;;;;;;;14.60;100.00;101591.72;5036108;28;20055;-82
2022/10/28 08:14:41;;;;;;;6.40;3.30;;;;;;;14.74;100.00;101590.59;5035730;28;20057;-84
2022/10/28 08:17:07;;;;;;;4.80;3.00;;;;;;;14.88;100.00;101599.00;5034699;28;20018;-84
2022/10/28 08:19:32;;;;;;;5.90;3.03;;;;;;;15.01;100.00;101601.34;5035336;28;20025;-84
2022/10/28 08:21:58;;;;;;;6.87;3.37;;;;;;;15.10;100.00;101603.75;5034930;28;20389;-84
2022/10/28 08:24:23;;;;;;;6.20;3.20;;;;;;;15.17;100.00;101610.59;5034642;28;20026;-84
2022/10/28 08:26:49;;;;;;;6.27;3.57;;;;;;;15.27;100.00;101606.00;5035269;28;20441;-84
2022/10/28 08:29:14;;;;;;;6.67;3.37;;;;;;;15.35;100.00;101605.81;5034057;28;20025;-84
2022/10/28 08:31:40;;;;;;;3.97;3.00;;;;;;;15.41;100.00;101609.16;5035144;28;20021;-83
2022/10/28 08:34:05;;;;;;;8.70;3.60;;;;;;;15.47;100.00;101610.75;5033821;28;20063;-83
2022/10/28 08:36:31;;;;;;;5.70;2.97;;;;;;;15.52;100.00;101608.91;5035159;28;20162;-83
2022/10/28 08:38:59;;;;;;;5.43;2.93;;;;;;;15.56;100.00;101605.31;5041404;28;20037;-83
2022/10/28 08:41:43;;;;;;;7.50;3.38;;;;;;;15.63;100.00;101613.88;5055272;28;20029;-84
2022/10/28 08:44:33;;;;;;;8.43;3.40;;;;;;;15.74;100.00;101613.63;5053948;28;20025;-83
2022/10/28 08:47:05;;;;;;;8.25;3.33;;;;;;;15.83;100.00;101605.53;5054529;28;20488;-84
2022/10/28 08:49:33;;;;;;;5.22;3.10;;;;;;;15.95;100.00;101600.91;5054879;28;20078;-84
2022/10/28 08:52:27;;;;;;;6.10;3.00;;;;;;;16.08;100.00;101594.47;5053497;28;20526;-83
2022/10/28 08:55:05;;;;;;;8.98;3.65;;;;;;;16.26;100.00;101592.25;5053829;28;20029;-84
2022/10/28 08:58:01;;;;;;;7.38;3.45;;;;;;;16.45;100.00;101596.06;5033996;28;20029;-82
2022/10/28 09:00:29;;;;;;;5.40;3.10;;;;;;;16.55;100.00;101603.69;5031724;28;20390;-83
2022/10/28 09:03:07;;;;;;;4.70;3.03;;;;;;;16.66;99.92;101602.47;5033986;28;20025;-84
2022/10/28 09:05:32;;;;;;;8.90;3.40;;;;;;;16.77;98.66;101610.03;5033910;28;20067;-84
2022/10/28 09:07:58;;;;;;;6.73;3.17;;;;;;;16.85;98.92;101606.31;5041200;28;20049;-83
2022/10/28 09:10:44;;;;;;;5.20;2.93;;;;;;;16.93;98.57;101618.31;5040117;28;20535;-83
2022/10/28 09:13:31;;;;;;;3.17;2.50;;;;;;;17.02;98.34;101614.56;5033804;28;20068;-84
2022/10/28 09:16:21;;;;;;;8.15;3.20;;;;;;;17.14;96.67;101614.19;5048514;28;20044;-83
2022/10/28 09:18:56;;;;;;;7.35;3.60;;;;;;;17.28;96.10;101620.78;5043687;28;20025;-83
2022/10/28 09:21:38;;;;;;;7.18;3.33;;;;;;;17.38;95.95;101621.38;5047035;28;20096;-83
2022/10/28 09:24:17;;;;;;;5.47;3.35;;;;;;;17.53;95.83;101620.88;5046694;28;20044;-83
2022/10/28 09:27:12;;;;;;;8.20;3.22;;;;;;;17.75;96.40;101626.28;5035557;28;20037;-83
2022/10/28 09:29:46;;;;;;;5.55;3.20;;;;;;;17.97;94.79;101616.84;5024601;28;20025;-83
2022/10/28 09:32:53;;;;;;;4.65;2.90;;;;;;;18.19;94.24;101614.34;5033870;28;20049;-83
2022/10/28 09:35:23;;;;;;;5.45;2.92;;;;;;;18.34;94.63;101619.06;5028822;28;20045;-82
2022/10/28 09:38:14;;;;;;;6.97;3.05;;;;;;;18.39;91.89;101629.41;5044533;28;20035;-83
2022/10/28 09:40:44;;;;;;;5.35;2.90;;;;;;;18.36;89.49;101633.00;5053112;28;20037;-84
2022/10/28 09:43:34;;;;;;;9.77;3.45;;;;;;;18.35;89.61;101633.06;5052790;28;20488;-84
2022/10/28 09:46:11;;;;;;;9.52;3.70;;;;;;;18.36;89.38;101637.41;5053603;28;20032;-83
2022/10/28 09:48:40;;;;;;;8.27;3.80;;;;;;;18.42;89.11;101633.69;5052833;28;20126;-83
2022/10/28 09:51:06;;;;;;;8.63;3.72;;;;;;;18.55;89.01;101629.72;5053778;28;20025;-83
2022/10/28 09:53:52;;;;;;;9.38;3.83;;;;;;;18.66;86.72;101626.69;5053073;28;20031;-83
2022/10/28 09:56:18;;;;;;;6.82;3.60;;;;;;;18.75;86.80;101633.38;5052083;28;20028;-82
2022/10/28 09:58:47;;;;;;;5.70;3.17;;;;;;;18.82;86.95;101640.13;5053765;28;20048;-83
2022/10/28 10:01:14;;;;;;;8.98;3.88;;;;;;;18.92;84.67;101630.13;5052769;28;20022;-81
2022/10/28 10:03:40;;;;;;;11.07;3.78;;;;;;;19.04;84.72;101636.69;5053345;28;20028;-84
2022/10/28 10:06:14;;;;;;;10.23;3.67;;;;;;;19.13;84.58;101639.84;5052454;28;20078;-83
2022/10/28 10:08:40;;;;;;;7.60;3.50;;;;;;;19.24;85.23;101631.53;5052640;28;20028;-82
2022/10/28 10:11:24;;;;;;;11.52;4.30;;;;;;;19.38;81.68;101630.13;5052921;28;20477;-81
2022/10/28 10:13:51;;;;;;;10.23;3.75;;;;;;;19.47;81.93;101628.91;5052569;28;20042;-83
2022/10/28 10:16:16;;;;;;;;;;;;;;;19.52;80.86;101629.59;5053269;28;20067;-83
2022/10/28 10:18:48;;;;;;;7.95;3.90;;;;;;;19.57;81.20;101625.84;5053056;28;19909;-83
2022/10/28 10:21:15;;;;;;;7.38;3.55;;;;;;;19.64;83.05;101634.34;5051253;28;20079;-82
2022/10/28 10:23:40;;;;;;;6.88;2.90;;;;;;;19.66;83.32;101629.84;5037932;28;20493;-83
2022/10/28 10:26:08;;;;;;;8.13;3.57;;;;;;;19.74;79.90;101621.66;5032535;28;20029;-83
2022/10/28 10:28:42;;;;;;;5.45;3.00;;;;;;;19.80;81.91;101618.78;5032793;28;20025;-82
2022/10/28 10:31:17;;;;;;;4.32;2.70;;;;;;;19.89;82.47;101626.31;5032011;28;20026;-82
2022/10/28 10:33:42;;;;;;;7.65;3.22;;;;;;;19.95;80.08;101619.94;5032598;28;20045;-83
2022/10/28 10:36:10;;;;;;;6.13;3.03;;;;;;;20.00;78.15;101617.09;5031492;28;20033;-83
2022/10/28 10:38:37;;;;;;;8.43;3.10;;;;;;;20.04;80.47;101616.06;5034018;28;20048;-84
2022/10/28 10:41:03;;;;;;;5.90;2.70;;;;;;;20.07;80.27;101613.25;5032606;28;20029;-83
2022/10/28 10:43:34;;;;;;;9.87;3.37;;;;;;;20.11;77.61;101612.22;5032234;28;20068;-85
2022/10/28 10:46:02;;;;;;;7.32;3.33;;;;;;;20.15;76.45;101605.03;5032560;28;20037;-84
2022/10/28 10:48:31;;;;;;;9.45;3.53;;;;;;;20.19;77.52;101601.34;5032805;28;20367;-84
2022/10/28 10:50:56;;;;;;;5.82;3.00;;;;;;;20.27;79.53;101604.50;5031978;28;20092;-84
2022/10/28 10:53:26;;;;;;;6.90;3.25;;;;;;;20.34;78.06;101590.13;5033315;28;20108;-84
2022/10/28 10:56:03;;;;;;;5.65;2.97;;;;;;;20.40;78.94;101596.88;5032092;28;20025;-84
2022/10/28 10:58:32;;;;;;;5.47;2.95;;;;;;;20.43;79.25;101588.00;5032265;28;20377;-84
2022/10/28 11:00:59;;;;;;;8.80;3.42;;;;;;;20.44;77.41;101593.19;5032579;28;20026;-85
2022/10/28 11:03:28;;;;;;;8.68;3.42;;;;;;;20.45;75.95;101609.88;5032479;28;20555;-85
2022/10/28 11:05:56;;;;;;;7.78;3.35;;;;;;;20.49;75.40;101612.28;5031638;28;20033;-83
2022/10/28 11:08:34;;;;;;;10.63;3.40;;;;;;;20.58;73.68;101610.19;5032537;28;20546;-85
2022/10/28 11:11:05;;;;;;;7.45;3.28;;;;;;;20.64;75.75;101609.91;5031512;28;20021;-84
2022/10/28 11:13:33;;;;;;;8.75;3.35;;;;;;;20.73;75.26;101608.63;5032789;28;20116;-85
2022/10/28 11:16:00;;;;;;;9.32;3.28;;;;;;;20.77;71.98;101611.06;5032488;28;20097;-84
2022/10/28 11:18:28;;;;;;;9.57;3.90;;;;;;;20.80;69.63;101595.13;5038534;28;20033;-84
2022/10/28 11:21:03;;;;;;;9.80;3.53;;;;;;;20.79;69.86;101590.78;5052235;28;20067;-83
2022/10/28 11:23:54;;;;;;;10.70;3.40;;;;;;;20.75;70.35;101585.72;5052383;28;20078;-83
2022/10/28 11:26:22;;;;;;;8.35;3.60;;;;;;;20.72;72.28;101577.91;5051813;28;20128;-83
2022/10/28 11:29:06;;;;;;;7.85;3.33;;;;;;;20.71;70.06;101577.06;5052547;28;20029;-84
2022/10/28 11:31:49;;;;;;;8.27;3.30;;;;;;;20.69;73.16;101568.34;5052185;28;20032;-84
2022/10/28 11:34:35;;;;;;;11.68;3.35;;;;;;;20.65;71.46;101583.47;5051931;28;20025;-84